sensor_id;sensor_type;location;lat;lon;timestamp;pressure;altitude;pressure_sealevel;temperature;humidity
22047;BME280;11187;49.412;20.956;2023-02-28T00:00:04;95994.53;;;-4.38;94.38
22047;BME280;11187;49.412;20.956;2023-02-28T00:02:44;95993.53;;;-4.42;94.19
22047;BME280;11187;49.412;20.956;2023-02-28T00:05:32;95986.66;;;-4.46;94.50
22047;BME280;11187;49.412;20.956;2023-02-28T00:08:07;96001.66;;;-4.46;94.74
22047;BME280;11187;49.412;20.956;2023-02-28T00:11:06;95996.50;;;-4.49;94.69
22047;BME280;11187;49.412;20.956;2023-02-28T00:13:42;95993.75;;;-4.54;94.59
22047;BME280;11187;49.412;20.956;2023-02-28T00:16:36;96002.47;;;-4.62;94.87
22047;BME280;11187;49.412;20.956;2023-02-28T00:19:09;96004.88;;;-4.64;95.19
22047;BME280;11187;49.412;20.956;2023-02-28T00:22:03;96014.72;;;-4.67;95.25
22047;BME280;11187;49.412;20.956;2023-02-28T00:24:57;96018.66;;;-4.70;94.95
22047;BME280;11187;49.412;20.956;2023-02-28T00:27:30;96024.38;;;-4.73;95.35
22047;BME280;11187;49.412;20.956;2023-02-28T00:30:19;96019.31;;;-4.74;95.19
22047;BME280;11187;49.412;20.956;2023-02-28T00:32:52;96020.91;;;-4.75;95.35
22047;BME280;11187;49.412;20.956;2023-02-28T00:35:39;96028.16;;;-4.79;95.40
22047;BME280;11187;49.412;20.956;2023-02-28T00:38:13;96029.56;;;-4.85;95.66
22047;BME280;11187;49.412;20.956;2023-02-28T00:41:00;96031.72;;;-4.91;95.44
22047;BME280;11187;49.412;20.956;2023-02-28T00:43:38;96032.16;;;-4.98;95.54
22047;BME280;11187;49.412;20.956;2023-02-28T00:46:25;96034.50;;;-5.01;95.79
22047;BME280;11187;49.412;20.956;2023-02-28T00:48:58;96033.53;;;-5.03;95.84
22047;BME280;11187;49.412;20.956;2023-02-28T00:51:45;96036.63;;;-5.07;96.10
22047;BME280;11187;49.412;20.956;2023-02-28T00:54:19;96037.34;;;-5.10;95.90
22047;BME280;11187;49.412;20.956;2023-02-28T00:57:13;96040.53;;;-5.12;95.83
22047;BME280;11187;49.412;20.956;2023-02-28T00:59:46;96039.81;;;-5.10;96.24
22047;BME280;11187;49.412;20.956;2023-02-28T01:02:34;96033.19;;;-5.09;96.12
22047;BME280;11187;49.412;20.956;2023-02-28T01:05:08;96036.47;;;-5.10;95.82
22047;BME280;11187;49.412;20.956;2023-02-28T01:07:54;96032.78;;;-5.17;95.92
22047;BME280;11187;49.412;20.956;2023-02-28T01:10:27;96034.06;;;-5.23;95.98
22047;BME280;11187;49.412;20.956;2023-02-28T01:13:16;96037.94;;;-5.29;96.03
22047;BME280;11187;49.412;20.956;2023-02-28T01:15:51;96031.16;;;-5.31;96.51
22047;BME280;11187;49.412;20.956;2023-02-28T01:18:38;96027.06;;;-5.29;96.41
22047;BME280;11187;49.412;20.956;2023-02-28T01:21:14;96022.78;;;-5.32;96.60
22047;BME280;11187;49.412;20.956;2023-02-28T01:24:03;96030.88;;;-5.36;96.77
22047;BME280;11187;49.412;20.956;2023-02-28T01:26:36;96035.09;;;-5.35;96.83
22047;BME280;11187;49.412;20.956;2023-02-28T01:29:30;96038.63;;;-5.31;96.82
22047;BME280;11187;49.412;20.956;2023-02-28T01:32:24;96039.28;;;-5.34;96.59
22047;BME280;11187;49.412;20.956;2023-02-28T01:35:18;96029.31;;;-5.34;96.69
22047;BME280;11187;49.412;20.956;2023-02-28T01:38:14;96030.69;;;-5.39;96.48
22047;BME280;11187;49.412;20.956;2023-02-28T01:40:49;96025.00;;;-5.36;96.79
22047;BME280;11187;49.412;20.956;2023-02-28T01:46:16;96024.00;;;-5.40;96.31
22047;BME280;11187;49.412;20.956;2023-02-28T01:49:15;96027.34;;;-5.39;96.23
22047;BME280;11187;49.412;20.956;2023-02-28T01:51:53;96028.03;;;-5.42;96.42
22047;BME280;11187;49.412;20.956;2023-02-28T01:54:42;96017.00;;;-5.46;96.42
22047;BME280;11187;49.412;20.956;2023-02-28T01:57:18;96011.94;;;-5.47;96.31
22047;BME280;11187;49.412;20.956;2023-02-28T02:00:12;96013.50;;;-5.49;96.33
22047;BME280;11187;49.412;20.956;2023-02-28T02:02:51;96016.25;;;-5.44;96.49
22047;BME280;11187;49.412;20.956;2023-02-28T02:05:41;96006.06;;;-5.48;96.46
22047;BME280;11187;49.412;20.956;2023-02-28T02:08:21;95997.47;;;-5.53;96.32
22047;BME280;11187;49.412;20.956;2023-02-28T02:11:11;95996.72;;;-5.52;96.70
22047;BME280;11187;49.412;20.956;2023-02-28T02:20:13;95973.13;;;-5.57;96.60
22047;BME280;11187;49.412;20.956;2023-02-28T02:23:27;95979.66;;;-5.59;96.33
22047;BME280;11187;49.412;20.956;2023-02-28T02:26:47;95981.63;;;-5.68;96.28
22047;BME280;11187;49.412;20.956;2023-02-28T02:33:06;95994.53;;;-5.75;96.83
22047;BME280;11187;49.412;20.956;2023-02-28T02:35:54;95996.25;;;-5.74;96.86
22047;BME280;11187;49.412;20.956;2023-02-28T02:39:25;95992.88;;;-5.75;97.35
22047;BME280;11187;49.412;20.956;2023-02-28T02:42:51;95988.56;;;-5.77;97.48
22047;BME280;11187;49.412;20.956;2023-02-28T02:48:34;95994.25;;;-5.80;97.23
22047;BME280;11187;49.412;20.956;2023-02-28T02:51:18;95988.03;;;-5.87;97.45
22047;BME280;11187;49.412;20.956;2023-02-28T02:54:24;95992.19;;;-5.87;97.54
22047;BME280;11187;49.412;20.956;2023-02-28T02:57:08;95985.38;;;-5.90;97.31
22047;BME280;11187;49.412;20.956;2023-02-28T03:00:05;95980.50;;;-5.88;97.71
22047;BME280;11187;49.412;20.956;2023-02-28T03:03:01;95991.34;;;-5.88;97.73
22047;BME280;11187;49.412;20.956;2023-02-28T03:05:41;95986.25;;;-5.89;97.50
22047;BME280;11187;49.412;20.956;2023-02-28T03:08:34;95996.13;;;-5.91;97.78
22047;BME280;11187;49.412;20.956;2023-02-28T03:11:13;95997.00;;;-5.90;97.58
22047;BME280;11187;49.412;20.956;2023-02-28T03:22:52;96012.38;;;-5.97;97.79
22047;BME280;11187;49.412;20.956;2023-02-28T03:25:55;96011.63;;;-5.96;98.14
22047;BME280;11187;49.412;20.956;2023-02-28T03:29:22;96016.63;;;-5.96;98.04
22047;BME280;11187;49.412;20.956;2023-02-28T03:32:08;96028.03;;;-6.00;97.88
22047;BME280;11187;49.412;20.956;2023-02-28T03:35:07;96026.41;;;-5.99;98.22
22047;BME280;11187;49.412;20.956;2023-02-28T03:37:44;96016.63;;;-5.96;98.10
22047;BME280;11187;49.412;20.956;2023-02-28T03:40:33;96026.47;;;-5.98;98.27
22047;BME280;11187;49.412;20.956;2023-02-28T03:43:12;96033.69;;;-6.02;98.01
22047;BME280;11187;49.412;20.956;2023-02-28T03:46:05;96015.38;;;-6.03;98.15
22047;BME280;11187;49.412;20.956;2023-02-28T03:48:51;96023.66;;;-6.04;98.06
22047;BME280;11187;49.412;20.956;2023-02-28T03:51:48;96032.66;;;-6.06;98.17
22047;BME280;11187;49.412;20.956;2023-02-28T03:54:50;96031.78;;;-6.06;98.28
22047;BME280;11187;49.412;20.956;2023-02-28T04:00:40;96033.25;;;-6.10;97.99
22047;BME280;11187;49.412;20.956;2023-02-28T04:03:17;96042.38;;;-6.11;98.43
22047;BME280;11187;49.412;20.956;2023-02-28T04:06:05;96036.03;;;-6.19;98.24
22047;BME280;11187;49.412;20.956;2023-02-28T04:08:39;96033.44;;;-6.20;98.48
22047;BME280;11187;49.412;20.956;2023-02-28T04:14:14;96033.09;;;-6.26;98.81
22047;BME280;11187;49.412;20.956;2023-02-28T04:17:08;96021.41;;;-6.27;98.69
22047;BME280;11187;49.412;20.956;2023-02-28T04:20:03;96019.69;;;-6.28;98.95
22047;BME280;11187;49.412;20.956;2023-02-28T04:22:49;96026.28;;;-6.29;99.09
22047;BME280;11187;49.412;20.956;2023-02-28T04:25:43;96028.13;;;-6.26;98.95
22047;BME280;11187;49.412;20.956;2023-02-28T04:28:38;96030.63;;;-6.26;99.03
22047;BME280;11187;49.412;20.956;2023-02-28T04:31:10;96028.88;;;-6.27;99.51
22047;BME280;11187;49.412;20.956;2023-02-28T04:33:57;96036.44;;;-6.26;99.26
22047;BME280;11187;49.412;20.956;2023-02-28T04:36:31;96037.47;;;-6.22;99.38
22047;BME280;11187;49.412;20.956;2023-02-28T04:39:17;96037.84;;;-6.16;99.17
22047;BME280;11187;49.412;20.956;2023-02-28T04:41:50;96028.94;;;-6.13;99.32
22047;BME280;11187;49.412;20.956;2023-02-28T04:44:44;96030.84;;;-6.08;99.04
22047;BME280;11187;49.412;20.956;2023-02-28T04:47:38;96036.97;;;-6.03;98.93
22047;BME280;11187;49.412;20.956;2023-02-28T04:50:12;96040.31;;;-6.03;99.07
22047;BME280;11187;49.412;20.956;2023-02-28T04:52:58;96034.47;;;-6.03;99.21
22047;BME280;11187;49.412;20.956;2023-02-28T04:55:31;96039.63;;;-6.00;99.35
22047;BME280;11187;49.412;20.956;2023-02-28T04:58:26;96037.94;;;-6.01;99.04
22047;BME280;11187;49.412;20.956;2023-02-28T05:01:06;96036.97;;;-6.03;99.04
22047;BME280;11187;49.412;20.956;2023-02-28T05:03:55;96034.47;;;-6.03;99.07
22047;BME280;11187;49.412;20.956;2023-02-28T05:06:31;96037.56;;;-6.07;99.25
22047;BME280;11187;49.412;20.956;2023-02-28T05:09:18;96033.94;;;-6.13;99.33
22047;BME280;11187;49.412;20.956;2023-02-28T05:11:51;96043.69;;;-6.16;99.81
22047;BME280;11187;49.412;20.956;2023-02-28T05:14:38;96040.63;;;-6.12;100.00
22047;BME280;11187;49.412;20.956;2023-02-28T05:17:11;96041.19;;;-6.16;99.72
22047;BME280;11187;49.412;20.956;2023-02-28T05:19:58;96044.59;;;-6.15;99.66
22047;BME280;11187;49.412;20.956;2023-02-28T05:22:41;96035.63;;;-6.12;99.56
22047;BME280;11187;49.412;20.956;2023-02-28T05:25:28;96029.91;;;-6.11;99.65
22047;BME280;11187;49.412;20.956;2023-02-28T05:28:02;96036.50;;;-6.11;99.99
22047;BME280;11187;49.412;20.956;2023-02-28T05:30:48;96035.75;;;-6.10;100.00
22047;BME280;11187;49.412;20.956;2023-02-28T05:33:21;96042.63;;;-6.06;100.00
22047;BME280;11187;49.412;20.956;2023-02-28T05:36:15;96042.50;;;-5.94;100.00
22047;BME280;11187;49.412;20.956;2023-02-28T05:38:50;96046.53;;;-5.81;100.00
22047;BME280;11187;49.412;20.956;2023-02-28T05:41:39;96051.88;;;-5.75;100.00
22047;BME280;11187;49.412;20.956;2023-02-28T05:44:13;96055.59;;;-5.69;99.91
22047;BME280;11187;49.412;20.956;2023-02-28T05:46:59;96058.47;;;-5.62;100.00
22047;BME280;11187;49.412;20.956;2023-02-28T05:49:33;96064.47;;;-5.59;99.88
22047;BME280;11187;49.412;20.956;2023-02-28T05:52:27;96066.47;;;-5.53;100.00
22047;BME280;11187;49.412;20.956;2023-02-28T05:55:14;96065.09;;;-5.48;99.94
22047;BME280;11187;49.412;20.956;2023-02-28T05:57:54;96069.34;;;-5.47;99.89
22047;BME280;11187;49.412;20.956;2023-02-28T06:00:34;96075.44;;;-5.42;99.98
22047;BME280;11187;49.412;20.956;2023-02-28T06:03:14;96068.72;;;-5.43;99.96
22047;BME280;11187;49.412;20.956;2023-02-28T06:05:48;96068.66;;;-5.44;100.00
22047;BME280;11187;49.412;20.956;2023-02-28T06:08:41;96076.47;;;-5.38;100.00
22047;BME280;11187;49.412;20.956;2023-02-28T06:11:35;96085.53;;;-5.26;100.00
22047;BME280;11187;49.412;20.956;2023-02-28T06:14:16;96089.41;;;-5.16;99.73
22047;BME280;11187;49.412;20.956;2023-02-28T06:17:10;96095.81;;;-5.06;99.66
22047;BME280;11187;49.412;20.956;2023-02-28T06:19:44;96103.72;;;-4.98;99.33
22047;BME280;11187;49.412;20.956;2023-02-28T06:22:30;96089.34;;;-4.88;99.65
22047;BME280;11187;49.412;20.956;2023-02-28T06:25:05;96092.41;;;-4.77;99.68
22047;BME280;11187;49.412;20.956;2023-02-28T06:27:53;96088.03;;;-4.66;99.40
22047;BME280;11187;49.412;20.956;2023-02-28T06:30:27;96096.13;;;-4.55;99.36
22047;BME280;11187;49.412;20.956;2023-02-28T06:33:13;96090.41;;;-4.38;99.39
22047;BME280;11187;49.412;20.956;2023-02-28T06:35:50;96092.16;;;-4.21;99.15
22047;BME280;11187;49.412;20.956;2023-02-28T06:38:37;96096.44;;;-4.03;99.18
22047;BME280;11187;49.412;20.956;2023-02-28T06:41:11;96077.94;;;-3.90;97.94
22047;BME280;11187;49.412;20.956;2023-02-28T06:43:57;96092.00;;;-3.76;98.48
22047;BME280;11187;49.412;20.956;2023-02-28T06:46:31;96072.31;;;-3.53;98.46
22047;BME280;11187;49.412;20.956;2023-02-28T06:49:18;96076.69;;;-3.33;96.94
22047;BME280;11187;49.412;20.956;2023-02-28T06:51:51;96069.06;;;-3.18;95.04
22047;BME280;11187;49.412;20.956;2023-02-28T06:54:38;96068.34;;;-2.99;94.26
22047;BME280;11187;49.412;20.956;2023-02-28T06:57:11;96064.75;;;-2.86;93.05
22047;BME280;11187;49.412;20.956;2023-02-28T07:00:11;96057.75;;;-2.76;93.15
22047;BME280;11187;49.412;20.956;2023-02-28T07:02:45;96064.06;;;-2.66;92.48
22047;BME280;11187;49.412;20.956;2023-02-28T07:05:37;96070.09;;;-2.62;90.95
22047;BME280;11187;49.412;20.956;2023-02-28T07:08:11;96075.22;;;-2.59;91.27
22047;BME280;11187;49.412;20.956;2023-02-28T07:11:04;96081.75;;;-2.63;88.97
22047;BME280;11187;49.412;20.956;2023-02-28T07:13:58;96082.50;;;-2.65;90.09
22047;BME280;11187;49.412;20.956;2023-02-28T07:16:32;96081.91;;;-2.60;90.45
22047;BME280;11187;49.412;20.956;2023-02-28T07:19:18;96079.69;;;-2.71;87.56
22047;BME280;11187;49.412;20.956;2023-02-28T07:21:52;96091.50;;;-2.69;88.43
22047;BME280;11187;49.412;20.956;2023-02-28T07:24:38;96089.84;;;-2.68;88.16
22047;BME280;11187;49.412;20.956;2023-02-28T07:27:11;96083.97;;;-2.69;88.02
22047;BME280;11187;49.412;20.956;2023-02-28T07:30:04;96088.13;;;-2.69;86.98
22047;BME280;11187;49.412;20.956;2023-02-28T07:32:37;96085.63;;;-2.69;88.61
22047;BME280;11187;49.412;20.956;2023-02-28T07:35:24;96083.84;;;-2.72;88.24
22047;BME280;11187;49.412;20.956;2023-02-28T07:37:58;96087.41;;;-2.67;89.02
22047;BME280;11187;49.412;20.956;2023-02-28T07:40:47;96090.06;;;-2.64;88.63
22047;BME280;11187;49.412;20.956;2023-02-28T07:43:21;96090.84;;;-2.65;88.98
22047;BME280;11187;49.412;20.956;2023-02-28T07:46:10;96092.44;;;-2.67;86.85
22047;BME280;11187;49.412;20.956;2023-02-28T07:48:44;96095.00;;;-2.65;87.08
22047;BME280;11187;49.412;20.956;2023-02-28T07:51:32;96091.06;;;-2.60;87.90
22047;BME280;11187;49.412;20.956;2023-02-28T07:54:05;96100.25;;;-2.61;87.30
22047;BME280;11187;49.412;20.956;2023-02-28T07:56:58;96098.91;;;-2.54;87.79
22047;BME280;11187;49.412;20.956;2023-02-28T07:59:52;96105.34;;;-2.41;85.90
22047;BME280;11187;49.412;20.956;2023-02-28T08:02:46;96100.19;;;-2.26;86.40
22047;BME280;11187;49.412;20.956;2023-02-28T08:05:40;96091.22;;;-2.21;86.99
22047;BME280;11187;49.412;20.956;2023-02-28T08:08:15;96101.03;;;-2.26;86.42
22047;BME280;11187;49.412;20.956;2023-02-28T08:11:08;96092.03;;;-2.22;87.01
22047;BME280;11187;49.412;20.956;2023-02-28T08:14:02;96103.75;;;-2.21;85.95
22047;BME280;11187;49.412;20.956;2023-02-28T08:16:36;96097.09;;;-2.21;86.00
22047;BME280;11187;49.412;20.956;2023-02-28T08:19:22;96103.88;;;-2.18;85.27
22047;BME280;11187;49.412;20.956;2023-02-28T08:21:56;96107.50;;;-2.13;85.78
22047;BME280;11187;49.412;20.956;2023-02-28T08:24:50;96107.84;;;-2.05;86.23
22047;BME280;11187;49.412;20.956;2023-02-28T08:27:24;96106.97;;;-2.06;86.60
22047;BME280;11187;49.412;20.956;2023-02-28T08:30:17;96112.97;;;-2.02;86.09
22047;BME280;11187;49.412;20.956;2023-02-28T08:33:11;96101.38;;;-2.00;86.43
22047;BME280;11187;49.412;20.956;2023-02-28T08:36:07;96105.88;;;-1.93;86.73
22047;BME280;11187;49.412;20.956;2023-02-28T08:38:40;96093.69;;;-1.85;86.65
22047;BME280;11187;49.412;20.956;2023-02-28T08:41:26;96104.66;;;-1.83;86.75
22047;BME280;11187;49.412;20.956;2023-02-28T08:44:00;96095.06;;;-1.73;87.01
22047;BME280;11187;49.412;20.956;2023-02-28T08:46:46;96107.69;;;-1.71;85.23
22047;BME280;11187;49.412;20.956;2023-02-28T08:49:20;96108.25;;;-1.59;86.44
22047;BME280;11187;49.412;20.956;2023-02-28T08:52:06;96107.19;;;-1.44;86.14
22047;BME280;11187;49.412;20.956;2023-02-28T08:54:40;96110.50;;;-1.26;84.59
22047;BME280;11187;49.412;20.956;2023-02-28T08:57:26;96109.19;;;-1.18;83.51
22047;BME280;11187;49.412;20.956;2023-02-28T09:00:00;96108.97;;;-1.03;84.25
22047;BME280;11187;49.412;20.956;2023-02-28T09:02:54;96115.09;;;-0.77;83.87
22047;BME280;11187;49.412;20.956;2023-02-28T09:05:28;96114.47;;;-0.50;83.97
22047;BME280;11187;49.412;20.956;2023-02-28T09:08:23;96122.56;;;-0.36;81.09
22047;BME280;11187;49.412;20.956;2023-02-28T09:10:56;96118.47;;;-0.13;81.77
22047;BME280;11187;49.412;20.956;2023-02-28T09:13:50;96106.63;;;0.29;81.54
22047;BME280;11187;49.412;20.956;2023-02-28T09:16:45;96106.16;;;0.63;79.90
22047;BME280;11187;49.412;20.956;2023-02-28T09:19:20;96106.09;;;0.85;80.28
22047;BME280;11187;49.412;20.956;2023-02-28T09:22:07;96116.81;;;0.79;78.68
22047;BME280;11187;49.412;20.956;2023-02-28T09:24:41;96112.06;;;0.87;78.14
22047;BME280;11187;49.412;20.956;2023-02-28T09:27:34;96120.56;;;0.90;78.15
22047;BME280;11187;49.412;20.956;2023-02-28T09:30:29;96120.56;;;1.14;78.73
22047;BME280;11187;49.412;20.956;2023-02-28T09:33:03;96114.38;;;1.06;77.42
22047;BME280;11187;49.412;20.956;2023-02-28T09:35:50;96115.66;;;0.93;77.40
22047;BME280;11187;49.412;20.956;2023-02-28T09:38:24;96121.56;;;0.95;78.14
22047;BME280;11187;49.412;20.956;2023-02-28T09:41:21;96121.78;;;1.01;78.77
22047;BME280;11187;49.412;20.956;2023-02-28T09:43:56;96117.78;;;0.82;77.46
22047;BME280;11187;49.412;20.956;2023-02-28T09:46:47;96115.53;;;0.66;77.92
22047;BME280;11187;49.412;20.956;2023-02-28T09:49:24;96109.28;;;0.56;78.78
22047;BME280;11187;49.412;20.956;2023-02-28T09:52:21;96105.69;;;0.50;79.98
22047;BME280;11187;49.412;20.956;2023-02-28T09:55:30;96111.47;;;0.25;79.98
22047;BME280;11187;49.412;20.956;2023-02-28T09:58:40;96101.56;;;0.07;80.66
22047;BME280;11187;49.412;20.956;2023-02-28T10:01:39;96096.16;;;-0.04;81.65
22047;BME280;11187;49.412;20.956;2023-02-28T10:04:41;96101.59;;;-0.16;80.51
22047;BME280;11187;49.412;20.956;2023-02-28T10:10:51;96087.41;;;-0.35;81.38
22047;BME280;11187;49.412;20.956;2023-02-28T10:14:14;96092.09;;;-0.44;81.94
22047;BME280;11187;49.412;20.956;2023-02-28T10:17:17;96091.41;;;-0.40;82.80
22047;BME280;11187;49.412;20.956;2023-02-28T10:20:00;96093.13;;;-0.39;82.17
22047;BME280;11187;49.412;20.956;2023-02-28T10:23:05;96083.88;;;-0.40;81.46
22047;BME280;11187;49.412;20.956;2023-02-28T10:25:45;96077.09;;;-0.41;83.08
22047;BME280;11187;49.412;20.956;2023-02-28T10:28:35;96078.81;;;-0.40;82.68
22047;BME280;11187;49.412;20.956;2023-02-28T10:31:17;96082.03;;;-0.44;81.76
22047;BME280;11187;49.412;20.956;2023-02-28T10:34:05;96086.94;;;-0.47;82.59
22047;BME280;11187;49.412;20.956;2023-02-28T10:36:39;96069.34;;;-0.47;82.60
22047;BME280;11187;49.412;20.956;2023-02-28T10:39:41;96073.38;;;-0.51;82.21
22047;BME280;11187;49.412;20.956;2023-02-28T10:42:29;96068.16;;;-0.55;82.44
22047;BME280;11187;49.412;20.956;2023-02-28T10:48:04;96064.22;;;-0.49;82.84
22047;BME280;11187;49.412;20.956;2023-02-28T10:53:52;96060.88;;;-0.49;83.57
22047;BME280;11187;49.412;20.956;2023-02-28T10:57:05;96053.38;;;-0.48;82.17
22047;BME280;11187;49.412;20.956;2023-02-28T10:59:40;96048.47;;;-0.45;83.42
22047;BME280;11187;49.412;20.956;2023-02-28T11:02:35;96051.09;;;-0.42;83.77
22047;BME280;11187;49.412;20.956;2023-02-28T11:05:34;96052.06;;;-0.38;83.94
22047;BME280;11187;49.412;20.956;2023-02-28T11:08:28;96048.81;;;-0.35;83.10
22047;BME280;11187;49.412;20.956;2023-02-28T11:11:25;96041.28;;;-0.35;83.98
22047;BME280;11187;49.412;20.956;2023-02-28T11:14:05;96039.50;;;-0.38;82.83
22047;BME280;11187;49.412;20.956;2023-02-28T11:16:53;96039.53;;;-0.36;83.29
22047;BME280;11187;49.412;20.956;2023-02-28T11:19:38;96032.91;;;-0.34;83.35
22047;BME280;11187;49.412;20.956;2023-02-28T11:22:29;96033.16;;;-0.28;83.26
22047;BME280;11187;49.412;20.956;2023-02-28T11:25:19;96031.63;;;-0.25;83.20
22047;BME280;11187;49.412;20.956;2023-02-28T11:28:32;96025.78;;;-0.24;83.64
22047;BME280;11187;49.412;20.956;2023-02-28T11:31:26;96024.25;;;-0.20;83.52
22047;BME280;11187;49.412;20.956;2023-02-28T11:34:24;96016.69;;;-0.20;83.34
22047;BME280;11187;49.412;20.956;2023-02-28T11:37:18;96017.72;;;-0.15;82.82
22047;BME280;11187;49.412;20.956;2023-02-28T11:39:52;96014.53;;;-0.11;83.82
22047;BME280;11187;49.412;20.956;2023-02-28T11:42:42;96023.03;;;-0.07;82.40
22047;BME280;11187;49.412;20.956;2023-02-28T11:45:29;96026.25;;;-0.11;82.88
22047;BME280;11187;49.412;20.956;2023-02-28T11:48:33;96022.00;;;-0.12;82.33
22047;BME280;11187;49.412;20.956;2023-02-28T11:51:24;96020.34;;;-0.12;82.32
22047;BME280;11187;49.412;20.956;2023-02-28T11:54:41;96019.66;;;-0.08;83.37
22047;BME280;11187;49.412;20.956;2023-02-28T12:10:02;96019.81;;;-0.03;83.92
22047;BME280;11187;49.412;20.956;2023-02-28T12:13:10;96021.59;;;-0.01;83.70
22047;BME280;11187;49.412;20.956;2023-02-28T12:19:51;96022.56;;;0.03;83.16
22047;BME280;11187;49.412;20.956;2023-02-28T12:29:29;96005.06;;;0.06;83.33
22047;BME280;11187;49.412;20.956;2023-02-28T12:32:35;96000.25;;;0.12;84.19
22047;BME280;11187;49.412;20.956;2023-02-28T12:35:38;96000.41;;;0.17;84.14
22047;BME280;11187;49.412;20.956;2023-02-28T12:38:39;96001.38;;;0.20;83.53
22047;BME280;11187;49.412;20.956;2023-02-28T12:41:20;95998.97;;;0.24;83.79
22047;BME280;11187;49.412;20.956;2023-02-28T12:44:20;95999.81;;;0.24;84.71
22047;BME280;11187;49.412;20.956;2023-02-28T12:47:02;96002.28;;;0.23;84.05
22047;BME280;11187;49.412;20.956;2023-02-28T12:50:05;96004.75;;;0.21;84.04
22047;BME280;11187;49.412;20.956;2023-02-28T12:52:51;95994.63;;;0.19;84.57
22047;BME280;11187;49.412;20.956;2023-02-28T12:55:47;95998.81;;;0.19;84.99
22047;BME280;11187;49.412;20.956;2023-02-28T12:58:48;95989.41;;;0.15;83.94
22047;BME280;11187;49.412;20.956;2023-02-28T13:10:38;95992.75;;;0.14;84.26
22047;BME280;11187;49.412;20.956;2023-02-28T13:13:23;95991.84;;;0.12;84.71
22047;BME280;11187;49.412;20.956;2023-02-28T13:16:16;95985.13;;;0.12;85.23
22047;BME280;11187;49.412;20.956;2023-02-28T13:19:11;95996.91;;;0.13;84.72
22047;BME280;11187;49.412;20.956;2023-02-28T13:21:45;95996.22;;;0.17;84.15
22047;BME280;11187;49.412;20.956;2023-02-28T13:27:21;95992.78;;;0.15;84.49
22047;BME280;11187;49.412;20.956;2023-02-28T13:33:33;95985.31;;;0.17;85.20
22047;BME280;11187;49.412;20.956;2023-02-28T13:36:32;95986.22;;;0.19;84.99
22047;BME280;11187;49.412;20.956;2023-02-28T13:45:36;95981.19;;;0.19;84.12
22047;BME280;11187;49.412;20.956;2023-02-28T13:48:32;95978.72;;;0.20;84.80
22047;BME280;11187;49.412;20.956;2023-02-28T13:51:44;95979.56;;;0.21;84.77
22047;BME280;11187;49.412;20.956;2023-02-28T13:55:00;95971.03;;;0.17;85.75
22047;BME280;11187;49.412;20.956;2023-02-28T13:57:57;95970.94;;;0.14;84.93
22047;BME280;11187;49.412;20.956;2023-02-28T14:06:55;95957.81;;;0.23;84.46
22047;BME280;11187;49.412;20.956;2023-02-28T14:09:39;95964.56;;;0.24;84.14
22047;BME280;11187;49.412;20.956;2023-02-28T14:12:53;95957.84;;;0.25;85.11
22047;BME280;11187;49.412;20.956;2023-02-28T14:18:31;95965.16;;;0.17;85.67
22047;BME280;11187;49.412;20.956;2023-02-28T14:21:34;95959.97;;;0.12;85.91
22047;BME280;11187;49.412;20.956;2023-02-28T14:24:28;95965.75;;;0.10;85.85
22047;BME280;11187;49.412;20.956;2023-02-28T14:27:24;95963.06;;;0.05;86.32
22047;BME280;11187;49.412;20.956;2023-02-28T14:36:27;95966.34;;;0.03;86.10
22047;BME280;11187;49.412;20.956;2023-02-28T14:39:12;95965.44;;;0.01;86.48
22047;BME280;11187;49.412;20.956;2023-02-28T14:42:00;95964.50;;;-0.02;86.79
22047;BME280;11187;49.412;20.956;2023-02-28T14:44:38;95965.19;;;-0.06;86.90
22047;BME280;11187;49.412;20.956;2023-02-28T14:47:32;95958.47;;;-0.07;86.95
22047;BME280;11187;49.412;20.956;2023-02-28T14:50:32;95966.88;;;-0.06;87.17
22047;BME280;11187;49.412;20.956;2023-02-28T14:53:18;95959.19;;;-0.09;87.71
22047;BME280;11187;49.412;20.956;2023-02-28T14:56:19;95959.94;;;-0.12;87.76
22047;BME280;11187;49.412;20.956;2023-02-28T14:58:55;95959.09;;;-0.12;87.21
22047;BME280;11187;49.412;20.956;2023-02-28T15:01:49;95962.34;;;-0.15;87.67
22047;BME280;11187;49.412;20.956;2023-02-28T15:04:52;95968.13;;;-0.17;87.48
22047;BME280;11187;49.412;20.956;2023-02-28T15:07:26;95963.88;;;-0.18;87.94
22047;BME280;11187;49.412;20.956;2023-02-28T15:10:25;95969.66;;;-0.21;88.36
22047;BME280;11187;49.412;20.956;2023-02-28T15:13:02;95968.88;;;-0.20;88.22
22047;BME280;11187;49.412;20.956;2023-02-28T15:16:03;95961.19;;;-0.23;88.01
22047;BME280;11187;49.412;20.956;2023-02-28T15:21:43;95963.53;;;-0.28;88.52
22047;BME280;11187;49.412;20.956;2023-02-28T15:24:41;95961.84;;;-0.29;88.53
22047;BME280;11187;49.412;20.956;2023-02-28T15:27:43;95965.03;;;-0.33;88.63
22047;BME280;11187;49.412;20.956;2023-02-28T15:30:37;95967.50;;;-0.34;88.67
22047;BME280;11187;49.412;20.956;2023-02-28T15:36:15;95974.13;;;-0.36;88.81
22047;BME280;11187;49.412;20.956;2023-02-28T15:38:51;95970.66;;;-0.40;89.21
22047;BME280;11187;49.412;20.956;2023-02-28T15:42:11;95973.09;;;-0.42;88.97
22047;BME280;11187;49.412;20.956;2023-02-28T15:44:45;95969.63;;;-0.45;88.98
22047;BME280;11187;49.412;20.956;2023-02-28T15:47:39;95972.00;;;-0.48;89.25
22047;BME280;11187;49.412;20.956;2023-02-28T15:50:53;95971.00;;;-0.53;89.50
22047;BME280;11187;49.412;20.956;2023-02-28T15:53:41;95976.66;;;-0.59;89.88
22047;BME280;11187;49.412;20.956;2023-02-28T15:56:36;95977.28;;;-0.65;89.73
22047;BME280;11187;49.412;20.956;2023-02-28T15:59:16;95979.72;;;-0.66;89.64
22047;BME280;11187;49.412;20.956;2023-02-28T16:02:17;95981.09;;;-0.74;90.02
22047;BME280;11187;49.412;20.956;2023-02-28T16:07:45;95989.88;;;-0.86;90.83
22047;BME280;11187;49.412;20.956;2023-02-28T16:10:31;95986.38;;;-0.89;90.77
22047;BME280;11187;49.412;20.956;2023-02-28T16:13:05;95992.13;;;-0.92;90.70
22047;BME280;11187;49.412;20.956;2023-02-28T16:15:53;95995.31;;;-0.96;91.31
22047;BME280;11187;49.412;20.956;2023-02-28T16:18:27;95999.41;;;-0.98;91.13
22047;BME280;11187;49.412;20.956;2023-02-28T16:21:20;96001.03;;;-1.00;91.13
22047;BME280;11187;49.412;20.956;2023-02-28T16:24:15;96004.22;;;-1.04;91.51